sensor_id;sensor_type;location;lat;lon;timestamp;P1;durP1;ratioP1;P2;durP2;ratioP2
37701;SDS011;23548;51.196;6.838;2022-08-21T00:01:47;17.70;;;12.63;;
37701;SDS011;23548;51.196;6.838;2022-08-21T00:04:12;19.80;;;12.13;;
37701;SDS011;23548;51.196;6.838;2022-08-21T00:06:39;21.25;;;12.07;;
37701;SDS011;23548;51.196;6.838;2022-08-21T00:09:06;19.80;;;12.00;;
37701;SDS011;23548;51.196;6.838;2022-08-21T00:11:36;19.35;;;11.43;;
37701;SDS011;23548;51.196;6.838;2022-08-21T00:14:05;19.95;;;12.05;;
37701;SDS011;23548;51.196;6.838;2022-08-21T00:16:32;20.48;;;12.40;;
37701;SDS011;23548;51.196;6.838;2022-08-21T00:18:58;21.55;;;12.73;;
37701;SDS011;23548;51.196;6.838;2022-08-21T00:21:24;19.55;;;12.43;;
37701;SDS011;23548;51.196;6.838;2022-08-21T00:23:50;21.67;;;12.60;;
37701;SDS011;23548;51.196;6.838;2022-08-21T00:26:16;25.00;;;13.52;;
37701;SDS011;23548;51.196;6.838;2022-08-21T00:28:42;24.33;;;14.30;;
37701;SDS011;23548;51.196;6.838;2022-08-21T00:31:08;26.70;;;14.02;;
37701;SDS011;23548;51.196;6.838;2022-08-21T00:33:34;18.10;;;14.48;;
37701;SDS011;23548;51.196;6.838;2022-08-21T00:36:00;23.80;;;14.15;;
37701;SDS011;23548;51.196;6.838;2022-08-21T00:38:27;20.00;;;13.30;;
37701;SDS011;23548;51.196;6.838;2022-08-21T00:40:55;22.95;;;14.57;;
37701;SDS011;23548;51.196;6.838;2022-08-21T00:43:24;26.75;;;15.38;;
37701;SDS011;23548;51.196;6.838;2022-08-21T00:45:56;21.42;;;14.20;;
37701;SDS011;23548;51.196;6.838;2022-08-21T00:48:22;24.50;;;14.18;;
37701;SDS011;23548;51.196;6.838;2022-08-21T00:50:56;22.77;;;14.43;;
37701;SDS011;23548;51.196;6.838;2022-08-21T00:53:22;22.10;;;14.30;;
37701;SDS011;23548;51.196;6.838;2022-08-21T00:55:48;23.05;;;14.68;;
37701;SDS011;23548;51.196;6.838;2022-08-21T00:58:15;25.27;;;15.18;;
37701;SDS011;23548;51.196;6.838;2022-08-21T01:00:42;37.10;;;15.05;;
37701;SDS011;23548;51.196;6.838;2022-08-21T01:03:11;21.20;;;14.65;;
37701;SDS011;23548;51.196;6.838;2022-08-21T01:05:39;24.67;;;15.35;;
37701;SDS011;23548;51.196;6.838;2022-08-21T01:08:06;31.83;;;17.67;;
37701;SDS011;23548;51.196;6.838;2022-08-21T01:10:34;26.85;;;17.35;;
37701;SDS011;23548;51.196;6.838;2022-08-21T01:13:13;23.67;;;15.05;;
37701;SDS011;23548;51.196;6.838;2022-08-21T01:15:42;27.15;;;16.02;;
37701;SDS011;23548;51.196;6.838;2022-08-21T01:18:11;26.65;;;16.85;;
37701;SDS011;23548;51.196;6.838;2022-08-21T01:20:39;29.45;;;17.13;;
37701;SDS011;23548;51.196;6.838;2022-08-21T01:23:30;23.63;;;16.70;;
37701;SDS011;23548;51.196;6.838;2022-08-21T01:25:56;25.52;;;15.68;;
37701;SDS011;23548;51.196;6.838;2022-08-21T01:28:21;25.02;;;15.80;;
37701;SDS011;23548;51.196;6.838;2022-08-21T01:30:48;20.50;;;15.77;;
37701;SDS011;23548;51.196;6.838;2022-08-21T01:33:17;19.00;;;15.20;;
37701;SDS011;23548;51.196;6.838;2022-08-21T01:35:45;23.20;;;15.43;;
37701;SDS011;23548;51.196;6.838;2022-08-21T01:38:10;26.33;;;15.68;;
37701;SDS011;23548;51.196;6.838;2022-08-21T01:40:37;26.60;;;15.90;;
37701;SDS011;23548;51.196;6.838;2022-08-21T01:43:03;24.50;;;16.65;;
37701;SDS011;23548;51.196;6.838;2022-08-21T01:45:29;29.25;;;17.10;;
37701;SDS011;23548;51.196;6.838;2022-08-21T01:47:55;26.30;;;17.67;;
37701;SDS011;23548;51.196;6.838;2022-08-21T01:50:21;25.70;;;17.52;;
37701;SDS011;23548;51.196;6.838;2022-08-21T01:52:47;26.38;;;17.92;;
37701;SDS011;23548;51.196;6.838;2022-08-21T01:55:16;26.83;;;18.33;;
37701;SDS011;23548;51.196;6.838;2022-08-21T01:57:43;27.90;;;18.73;;
37701;SDS011;23548;51.196;6.838;2022-08-21T02:00:11;25.00;;;17.85;;
37701;SDS011;23548;51.196;6.838;2022-08-21T02:02:39;29.80;;;17.65;;
37701;SDS011;23548;51.196;6.838;2022-08-21T02:05:06;25.65;;;17.50;;
37701;SDS011;23548;51.196;6.838;2022-08-21T02:07:40;26.27;;;17.73;;
37701;SDS011;23548;51.196;6.838;2022-08-21T02:10:08;26.70;;;18.73;;
37701;SDS011;23548;51.196;6.838;2022-08-21T02:12:35;23.25;;;17.35;;
37701;SDS011;23548;51.196;6.838;2022-08-21T02:15:02;26.95;;;17.48;;
37701;SDS011;23548;51.196;6.838;2022-08-21T02:18:05;26.70;;;18.15;;
37701;SDS011;23548;51.196;6.838;2022-08-21T02:20:26;26.02;;;19.10;;
37701;SDS011;23548;51.196;6.838;2022-08-21T02:22:57;26.35;;;18.77;;
37701;SDS011;23548;51.196;6.838;2022-08-21T02:25:24;26.38;;;18.73;;
37701;SDS011;23548;51.196;6.838;2022-08-21T02:27:51;24.88;;;18.48;;
37701;SDS011;23548;51.196;6.838;2022-08-21T02:30:19;30.02;;;18.83;;
37701;SDS011;23548;51.196;6.838;2022-08-21T02:32:48;33.78;;;19.13;;
37701;SDS011;23548;51.196;6.838;2022-08-21T02:35:14;29.77;;;19.25;;
37701;SDS011;23548;51.196;6.838;2022-08-21T02:37:53;25.83;;;18.73;;
37701;SDS011;23548;51.196;6.838;2022-08-21T02:40:25;28.13;;;18.60;;
37701;SDS011;23548;51.196;6.838;2022-08-21T02:42:53;32.10;;;18.98;;
37701;SDS011;23548;51.196;6.838;2022-08-21T02:45:19;25.98;;;18.75;;
37701;SDS011;23548;51.196;6.838;2022-08-21T02:47:49;26.88;;;18.98;;
37701;SDS011;23548;51.196;6.838;2022-08-21T02:50:17;24.02;;;18.27;;
37701;SDS011;23548;51.196;6.838;2022-08-21T02:52:45;23.25;;;18.27;;
37701;SDS011;23548;51.196;6.838;2022-08-21T02:55:11;25.90;;;19.15;;
37701;SDS011;23548;51.196;6.838;2022-08-21T02:57:37;25.75;;;17.92;;
37701;SDS011;23548;51.196;6.838;2022-08-21T03:00:04;24.50;;;18.15;;
37701;SDS011;23548;51.196;6.838;2022-08-21T03:02:31;27.65;;;17.95;;
37701;SDS011;23548;51.196;6.838;2022-08-21T03:04:57;26.25;;;17.58;;
37701;SDS011;23548;51.196;6.838;2022-08-21T03:07:23;29.50;;;17.38;;
37701;SDS011;23548;51.196;6.838;2022-08-21T03:09:48;21.23;;;17.55;;
37701;SDS011;23548;51.196;6.838;2022-08-21T03:12:14;24.17;;;17.77;;
37701;SDS011;23548;51.196;6.838;2022-08-21T03:14:40;26.02;;;17.17;;
37701;SDS011;23548;51.196;6.838;2022-08-21T03:17:08;25.55;;;17.35;;
37701;SDS011;23548;51.196;6.838;2022-08-21T03:19:33;25.38;;;18.60;;
37701;SDS011;23548;51.196;6.838;2022-08-21T03:21:59;23.00;;;17.40;;
37701;SDS011;23548;51.196;6.838;2022-08-21T03:24:25;28.55;;;17.33;;
37701;SDS011;23548;51.196;6.838;2022-08-21T03:26:51;22.23;;;16.98;;
37701;SDS011;23548;51.196;6.838;2022-08-21T03:29:17;31.65;;;17.58;;
37701;SDS011;23548;51.196;6.838;2022-08-21T03:31:42;27.48;;;18.35;;
37701;SDS011;23548;51.196;6.838;2022-08-21T03:34:08;29.50;;;18.48;;
37701;SDS011;23548;51.196;6.838;2022-08-21T03:36:34;30.17;;;18.55;;
37701;SDS011;23548;51.196;6.838;2022-08-21T03:39:00;27.98;;;18.67;;
37701;SDS011;23548;51.196;6.838;2022-08-21T03:41:26;30.55;;;18.38;;
37701;SDS011;23548;51.196;6.838;2022-08-21T03:43:51;28.25;;;18.58;;
37701;SDS011;23548;51.196;6.838;2022-08-21T03:46:17;24.50;;;17.63;;
37701;SDS011;23548;51.196;6.838;2022-08-21T03:48:43;27.83;;;18.33;;
37701;SDS011;23548;51.196;6.838;2022-08-21T03:51:09;29.13;;;18.35;;
37701;SDS011;23548;51.196;6.838;2022-08-21T03:53:35;26.30;;;17.25;;
37701;SDS011;23548;51.196;6.838;2022-08-21T03:56:01;29.13;;;18.40;;
37701;SDS011;23548;51.196;6.838;2022-08-21T03:58:28;33.08;;;18.15;;
37701;SDS011;23548;51.196;6.838;2022-08-21T04:00:58;28.33;;;18.10;;
37701;SDS011;23548;51.196;6.838;2022-08-21T04:03:25;28.48;;;18.70;;
37701;SDS011;23548;51.196;6.838;2022-08-21T04:05:52;28.48;;;19.60;;
37701;SDS011;23548;51.196;6.838;2022-08-21T04:08:18;28.98;;;19.50;;
37701;SDS011;23548;51.196;6.838;2022-08-21T04:10:45;31.63;;;19.08;;
37701;SDS011;23548;51.196;6.838;2022-08-21T04:13:13;37.30;;;19.63;;
37701;SDS011;23548;51.196;6.838;2022-08-21T04:15:39;26.20;;;19.55;;
37701;SDS011;23548;51.196;6.838;2022-08-21T04:18:06;25.50;;;18.88;;
37701;SDS011;23548;51.196;6.838;2022-08-21T04:20:33;33.65;;;20.33;;
37701;SDS011;23548;51.196;6.838;2022-08-21T04:22:59;27.00;;;19.55;;
37701;SDS011;23548;51.196;6.838;2022-08-21T04:25:26;28.27;;;19.80;;
37701;SDS011;23548;51.196;6.838;2022-08-21T04:27:51;29.60;;;19.58;;
37701;SDS011;23548;51.196;6.838;2022-08-21T04:30:18;27.35;;;19.52;;
37701;SDS011;23548;51.196;6.838;2022-08-21T04:32:47;28.50;;;19.00;;
37701;SDS011;23548;51.196;6.838;2022-08-21T04:35:16;26.92;;;20.25;;
37701;SDS011;23548;51.196;6.838;2022-08-21T04:37:46;30.85;;;20.05;;
37701;SDS011;23548;51.196;6.838;2022-08-21T04:40:13;29.27;;;20.30;;
37701;SDS011;23548;51.196;6.838;2022-08-21T04:42:44;27.58;;;19.95;;
37701;SDS011;23548;51.196;6.838;2022-08-21T04:45:24;29.75;;;20.20;;
37701;SDS011;23548;51.196;6.838;2022-08-21T04:48:03;27.90;;;19.70;;
37701;SDS011;23548;51.196;6.838;2022-08-21T04:50:34;26.08;;;19.70;;
37701;SDS011;23548;51.196;6.838;2022-08-21T04:53:05;28.17;;;18.60;;
37701;SDS011;23548;51.196;6.838;2022-08-21T04:55:34;31.40;;;19.98;;
37701;SDS011;23548;51.196;6.838;2022-08-21T04:58:00;26.63;;;19.25;;
37701;SDS011;23548;51.196;6.838;2022-08-21T05:00:27;28.45;;;19.23;;
37701;SDS011;23548;51.196;6.838;2022-08-21T05:02:53;29.63;;;19.20;;
37701;SDS011;23548;51.196;6.838;2022-08-21T05:05:24;24.33;;;18.58;;
37701;SDS011;23548;51.196;6.838;2022-08-21T05:07:50;25.83;;;17.50;;
37701;SDS011;23548;51.196;6.838;2022-08-21T05:10:18;26.50;;;18.70;;
37701;SDS011;23548;51.196;6.838;2022-08-21T05:12:44;28.42;;;18.27;;
37701;SDS011;23548;51.196;6.838;2022-08-21T05:15:11;30.10;;;18.92;;
37701;SDS011;23548;51.196;6.838;2022-08-21T05:17:37;24.20;;;17.85;;
37701;SDS011;23548;51.196;6.838;2022-08-21T05:20:04;28.42;;;19.23;;
37701;SDS011;23548;51.196;6.838;2022-08-21T05:22:30;33.42;;;18.38;;
37701;SDS011;23548;51.196;6.838;2022-08-21T05:24:56;32.13;;;19.60;;
37701;SDS011;23548;51.196;6.838;2022-08-21T05:27:23;27.88;;;17.98;;
37701;SDS011;23548;51.196;6.838;2022-08-21T05:29:48;31.75;;;18.95;;
37701;SDS011;23548;51.196;6.838;2022-08-21T05:32:14;30.48;;;19.05;;
37701;SDS011;23548;51.196;6.838;2022-08-21T05:34:40;25.55;;;17.88;;
37701;SDS011;23548;51.196;6.838;2022-08-21T05:37:06;24.73;;;18.75;;
37701;SDS011;23548;51.196;6.838;2022-08-21T05:39:32;31.10;;;18.25;;
37701;SDS011;23548;51.196;6.838;2022-08-21T05:41:58;28.23;;;17.90;;
37701;SDS011;23548;51.196;6.838;2022-08-21T05:44:23;32.92;;;19.02;;
37701;SDS011;23548;51.196;6.838;2022-08-21T05:46:49;28.30;;;18.50;;
37701;SDS011;23548;51.196;6.838;2022-08-21T05:49:15;23.23;;;17.77;;
37701;SDS011;23548;51.196;6.838;2022-08-21T05:51:41;35.88;;;19.48;;
37701;SDS011;23548;51.196;6.838;2022-08-21T05:54:07;28.08;;;18.83;;
37701;SDS011;23548;51.196;6.838;2022-08-21T05:56:33;30.83;;;19.23;;
37701;SDS011;23548;51.196;6.838;2022-08-21T05:58:58;30.38;;;19.35;;
37701;SDS011;23548;51.196;6.838;2022-08-21T06:01:24;31.90;;;19.35;;
37701;SDS011;23548;51.196;6.838;2022-08-21T06:03:50;30.42;;;19.35;;
37701;SDS011;23548;51.196;6.838;2022-08-21T06:06:16;27.35;;;17.88;;
37701;SDS011;23548;51.196;6.838;2022-08-21T06:08:42;32.70;;;19.77;;
37701;SDS011;23548;51.196;6.838;2022-08-21T06:11:08;29.50;;;18.58;;
37701;SDS011;23548;51.196;6.838;2022-08-21T06:13:35;25.45;;;19.00;;
37701;SDS011;23548;51.196;6.838;2022-08-21T06:16:04;26.17;;;17.92;;
37701;SDS011;23548;51.196;6.838;2022-08-21T06:18:31;26.92;;;18.25;;
37701;SDS011;23548;51.196;6.838;2022-08-21T06:20:57;26.38;;;18.35;;
37701;SDS011;23548;51.196;6.838;2022-08-21T06:23:23;30.00;;;19.17;;
37701;SDS011;23548;51.196;6.838;2022-08-21T06:25:49;25.88;;;18.40;;
37701;SDS011;23548;51.196;6.838;2022-08-21T06:28:15;25.15;;;17.25;;
37701;SDS011;23548;51.196;6.838;2022-08-21T06:30:41;21.65;;;16.25;;
37701;SDS011;23548;51.196;6.838;2022-08-21T06:33:08;26.70;;;17.13;;
37701;SDS011;23548;51.196;6.838;2022-08-21T06:35:34;20.30;;;15.00;;
37701;SDS011;23548;51.196;6.838;2022-08-21T06:38:00;22.08;;;14.63;;
37701;SDS011;23548;51.196;6.838;2022-08-21T06:40:26;20.38;;;11.52;;
37701;SDS011;23548;51.196;6.838;2022-08-21T06:42:53;23.42;;;12.30;;
37701;SDS011;23548;51.196;6.838;2022-08-21T06:45:19;24.90;;;11.73;;
37701;SDS011;23548;51.196;6.838;2022-08-21T06:47:45;18.58;;;11.15;;
37701;SDS011;23548;51.196;6.838;2022-08-21T06:50:11;18.10;;;12.68;;
37701;SDS011;23548;51.196;6.838;2022-08-21T06:52:37;19.02;;;11.00;;
37701;SDS011;23548;51.196;6.838;2022-08-21T06:55:04;21.08;;;9.90;;
37701;SDS011;23548;51.196;6.838;2022-08-21T06:57:31;17.15;;;10.55;;
37701;SDS011;23548;51.196;6.838;2022-08-21T06:59:57;15.18;;;9.52;;
37701;SDS011;23548;51.196;6.838;2022-08-21T07:02:23;15.32;;;8.52;;
37701;SDS011;23548;51.196;6.838;2022-08-21T07:04:49;17.17;;;7.78;;
37701;SDS011;23548;51.196;6.838;2022-08-21T07:07:15;12.98;;;7.63;;
37701;SDS011;23548;51.196;6.838;2022-08-21T07:09:42;18.65;;;8.15;;
37701;SDS011;23548;51.196;6.838;2022-08-21T07:12:07;13.23;;;7.18;;
37701;SDS011;23548;51.196;6.838;2022-08-21T07:14:34;13.48;;;7.18;;
37701;SDS011;23548;51.196;6.838;2022-08-21T07:17:01;13.98;;;6.82;;
37701;SDS011;23548;51.196;6.838;2022-08-21T07:19:27;17.77;;;8.48;;
37701;SDS011;23548;51.196;6.838;2022-08-21T07:21:54;16.17;;;6.60;;
37701;SDS011;23548;51.196;6.838;2022-08-21T07:24:24;12.20;;;5.50;;
37701;SDS011;23548;51.196;6.838;2022-08-21T07:26:50;13.60;;;5.25;;
37701;SDS011;23548;51.196;6.838;2022-08-21T07:29:16;14.63;;;5.15;;
37701;SDS011;23548;51.196;6.838;2022-08-21T07:31:42;11.43;;;4.82;;
37701;SDS011;23548;51.196;6.838;2022-08-21T07:34:08;10.30;;;4.13;;
37701;SDS011;23548;51.196;6.838;2022-08-21T07:36:34;11.00;;;4.55;;
37701;SDS011;23548;51.196;6.838;2022-08-21T07:39:00;10.85;;;4.70;;
37701;SDS011;23548;51.196;6.838;2022-08-21T07:41:27;14.88;;;4.35;;
37701;SDS011;23548;51.196;6.838;2022-08-21T07:43:55;11.32;;;4.97;;
37701;SDS011;23548;51.196;6.838;2022-08-21T07:46:22;13.73;;;4.88;;
37701;SDS011;23548;51.196;6.838;2022-08-21T07:48:49;10.95;;;4.50;;
37701;SDS011;23548;51.196;6.838;2022-08-21T07:51:16;10.25;;;4.05;;
37701;SDS011;23548;51.196;6.838;2022-08-21T07:53:42;13.13;;;4.10;;
37701;SDS011;23548;51.196;6.838;2022-08-21T07:56:13;10.32;;;3.78;;
37701;SDS011;23548;51.196;6.838;2022-08-21T07:58:40;7.70;;;2.72;;
37701;SDS011;23548;51.196;6.838;2022-08-21T08:01:07;9.60;;;3.53;;
37701;SDS011;23548;51.196;6.838;2022-08-21T08:03:34;9.85;;;2.63;;
37701;SDS011;23548;51.196;6.838;2022-08-21T08:06:00;8.02;;;2.83;;
37701;SDS011;23548;51.196;6.838;2022-08-21T08:08:29;14.27;;;3.28;;
37701;SDS011;23548;51.196;6.838;2022-08-21T08:10:56;10.07;;;2.50;;
37701;SDS011;23548;51.196;6.838;2022-08-21T08:13:22;12.85;;;3.45;;
37701;SDS011;23548;51.196;6.838;2022-08-21T08:15:49;9.68;;;2.60;;
37701;SDS011;23548;51.196;6.838;2022-08-21T08:18:16;7.28;;;2.25;;
37701;SDS011;23548;51.196;6.838;2022-08-21T08:20:42;4.78;;;2.30;;
37701;SDS011;23548;51.196;6.838;2022-08-21T08:23:10;9.73;;;2.50;;
37701;SDS011;23548;51.196;6.838;2022-08-21T08:25:40;6.38;;;1.73;;
37701;SDS011;23548;51.196;6.838;2022-08-21T08:28:06;7.13;;;2.15;;
37701;SDS011;23548;51.196;6.838;2022-08-21T08:30:33;5.78;;;2.28;;
37701;SDS011;23548;51.196;6.838;2022-08-21T08:32:59;11.20;;;2.30;;
37701;SDS011;23548;51.196;6.838;2022-08-21T08:35:26;6.28;;;2.00;;
37701;SDS011;23548;51.196;6.838;2022-08-21T08:37:53;5.60;;;2.03;;
37701;SDS011;23548;51.196;6.838;2022-08-21T08:43:07;5.50;;;1.30;;
37701;SDS011;23548;51.196;6.838;2022-08-21T08:45:34;4.55;;;1.83;;
37701;SDS011;23548;51.196;6.838;2022-08-21T08:48:05;4.15;;;1.70;;
37701;SDS011;23548;51.196;6.838;2022-08-21T08:50:48;5.93;;;1.75;;
37701;SDS011;23548;51.196;6.838;2022-08-21T08:53:23;7.90;;;1.88;;
37701;SDS011;23548;51.196;6.838;2022-08-21T08:56:02;6.45;;;1.45;;
37701;SDS011;23548;51.196;6.838;2022-08-21T08:58:33;4.80;;;1.40;;
37701;SDS011;23548;51.196;6.838;2022-08-21T09:01:03;4.10;;;1.80;;
37701;SDS011;23548;51.196;6.838;2022-08-21T09:03:36;3.92;;;1.63;;
37701;SDS011;23548;51.196;6.838;2022-08-21T09:06:11;5.68;;;1.75;;
37701;SDS011;23548;51.196;6.838;2022-08-21T09:08:59;4.22;;;1.80;;
37701;SDS011;23548;51.196;6.838;2022-08-21T09:12:29;8.35;;;1.80;;
37701;SDS011;23548;51.196;6.838;2022-08-21T09:15:15;7.68;;;1.80;;
37701;SDS011;23548;51.196;6.838;2022-08-21T09:20:28;6.75;;;1.60;;
37701;SDS011;23548;51.196;6.838;2022-08-21T09:28:43;5.07;;;1.60;;
37701;SDS011;23548;51.196;6.838;2022-08-21T09:31:23;6.32;;;1.83;;
37701;SDS011;23548;51.196;6.838;2022-08-21T09:34:06;4.28;;;1.40;;
37701;SDS011;23548;51.196;6.838;2022-08-21T09:39:03;8.88;;;2.20;;
37701;SDS011;23548;51.196;6.838;2022-08-21T09:41:31;5.03;;;1.65;;
37701;SDS011;23548;51.196;6.838;2022-08-21T09:44:00;4.28;;;1.55;;
37701;SDS011;23548;51.196;6.838;2022-08-21T09:46:27;5.50;;;1.77;;
37701;SDS011;23548;51.196;6.838;2022-08-21T09:48:57;7.22;;;2.10;;
37701;SDS011;23548;51.196;6.838;2022-08-21T09:51:26;4.57;;;1.70;;
37701;SDS011;23548;51.196;6.838;2022-08-21T09:53:54;5.47;;;1.80;;
37701;SDS011;23548;51.196;6.838;2022-08-21T09:56:34;5.60;;;2.03;;
37701;SDS011;23548;51.196;6.838;2022-08-21T09:59:34;7.80;;;2.13;;
37701;SDS011;23548;51.196;6.838;2022-08-21T10:02:14;6.95;;;2.30;;
37701;SDS011;23548;51.196;6.838;2022-08-21T10:04:53;9.27;;;2.45;;
37701;SDS011;23548;51.196;6.838;2022-08-21T10:07:32;7.22;;;2.50;;
37701;SDS011;23548;51.196;6.838;2022-08-21T10:10:09;7.68;;;2.67;;
37701;SDS011;23548;51.196;6.838;2022-08-21T10:26:39;7.95;;;2.90;;
37701;SDS011;23548;51.196;6.838;2022-08-21T10:34:59;6.53;;;2.58;;
37701;SDS011;23548;51.196;6.838;2022-08-21T10:37:41;4.88;;;2.42;;
37701;SDS011;23548;51.196;6.838;2022-08-21T10:45:42;7.82;;;2.30;;
37701;SDS011;23548;51.196;6.838;2022-08-21T10:48:27;7.68;;;2.10;;
37701;SDS011;23548;51.196;6.838;2022-08-21T10:51:16;6.13;;;2.05;;
37701;SDS011;23548;51.196;6.838;2022-08-21T10:54:05;7.00;;;2.10;;
37701;SDS011;23548;51.196;6.838;2022-08-21T10:56:39;6.55;;;1.70;;
37701;SDS011;23548;51.196;6.838;2022-08-21T10:59:23;6.43;;;2.05;;
37701;SDS011;23548;51.196;6.838;2022-08-21T11:07:00;7.05;;;2.10;;
37701;SDS011;23548;51.196;6.838;2022-08-21T11:09:35;4.93;;;1.88;;
37701;SDS011;23548;51.196;6.838;2022-08-21T11:12:06;4.65;;;2.10;;
37701;SDS011;23548;51.196;6.838;2022-08-21T11:14:56;8.00;;;2.03;;
37701;SDS011;23548;51.196;6.838;2022-08-21T11:17:32;7.05;;;2.20;;
37701;SDS011;23548;51.196;6.838;2022-08-21T11:22:53;7.85;;;2.63;;
37701;SDS011;23548;51.196;6.838;2022-08-21T11:25:29;7.38;;;1.92;;
37701;SDS011;23548;51.196;6.838;2022-08-21T11:28:35;9.07;;;2.40;;
37701;SDS011;23548;51.196;6.838;2022-08-21T11:34:54;7.03;;;2.40;;
37701;SDS011;23548;51.196;6.838;2022-08-21T11:37:13;8.35;;;2.20;;
37701;SDS011;23548;51.196;6.838;2022-08-21T11:39:51;6.82;;;2.53;;
37701;SDS011;23548;51.196;6.838;2022-08-21T11:42:40;7.65;;;2.92;;
37701;SDS011;23548;51.196;6.838;2022-08-21T11:50:32;6.85;;;1.83;;
37701;SDS011;23548;51.196;6.838;2022-08-21T11:53:10;5.25;;;1.65;;
37701;SDS011;23548;51.196;6.838;2022-08-21T11:55:55;7.25;;;1.92;;
37701;SDS011;23548;51.196;6.838;2022-08-21T11:58:28;6.70;;;2.20;;
37701;SDS011;23548;51.196;6.838;2022-08-21T12:00:57;7.90;;;1.75;;
37701;SDS011;23548;51.196;6.838;2022-08-21T12:03:37;8.18;;;2.88;;
37701;SDS011;23548;51.196;6.838;2022-08-21T12:06:10;3.78;;;1.90;;
37701;SDS011;23548;51.196;6.838;2022-08-21T12:08:38;4.22;;;1.65;;
37701;SDS011;23548;51.196;6.838;2022-08-21T12:14:34;7.82;;;1.75;;
37701;SDS011;23548;51.196;6.838;2022-08-21T12:16:37;5.03;;;1.90;;
37701;SDS011;23548;51.196;6.838;2022-08-21T12:19:10;4.95;;;1.70;;
37701;SDS011;23548;51.196;6.838;2022-08-21T12:21:49;5.18;;;1.90;;
37701;SDS011;23548;51.196;6.838;2022-08-21T12:24:41;3.58;;;1.55;;
37701;SDS011;23548;51.196;6.838;2022-08-21T12:33:00;6.00;;;1.60;;
37701;SDS011;23548;51.196;6.838;2022-08-21T12:35:32;6.07;;;1.98;;
37701;SDS011;23548;51.196;6.838;2022-08-21T12:43:38;5.15;;;1.67;;
37701;SDS011;23548;51.196;6.838;2022-08-21T12:46:17;3.83;;;1.75;;
37701;SDS011;23548;51.196;6.838;2022-08-21T12:48:54;5.00;;;1.55;;
37701;SDS011;23548;51.196;6.838;2022-08-21T12:51:33;6.28;;;1.85;;
37701;SDS011;23548;51.196;6.838;2022-08-21T12:54:24;6.25;;;1.88;;
37701;SDS011;23548;51.196;6.838;2022-08-21T12:57:04;5.68;;;1.77;;
37701;SDS011;23548;51.196;6.838;2022-08-21T12:59:31;6.32;;;1.85;;
37701;SDS011;23548;51.196;6.838;2022-08-21T13:02:02;4.95;;;1.90;;
37701;SDS011;23548;51.196;6.838;2022-08-21T13:04:36;6.07;;;1.70;;
37701;SDS011;23548;51.196;6.838;2022-08-21T13:07:09;5.32;;;1.63;;
37701;SDS011;23548;51.196;6.838;2022-08-21T13:09:46;4.97;;;1.60;;
37701;SDS011;23548;51.196;6.838;2022-08-21T13:12:16;4.32;;;1.40;;
37701;SDS011;23548;51.196;6.838;2022-08-21T13:14:45;4.43;;;1.52;;
37701;SDS011;23548;51.196;6.838;2022-08-21T13:17:16;4.60;;;1.50;;
37701;SDS011;23548;51.196;6.838;2022-08-21T13:19:52;3.92;;;1.60;;
37701;SDS011;23548;51.196;6.838;2022-08-21T13:22:42;3.83;;;1.63;;
37701;SDS011;23548;51.196;6.838;2022-08-21T13:25:12;2.92;;;1.23;;
37701;SDS011;23548;51.196;6.838;2022-08-21T13:27:40;3.25;;;1.30;;
37701;SDS011;23548;51.196;6.838;2022-08-21T13:30:11;2.95;;;1.20;;
37701;SDS011;23548;51.196;6.838;2022-08-21T13:32:47;3.75;;;1.30;;
37701;SDS011;23548;51.196;6.838;2022-08-21T13:35:16;6.70;;;1.58;;
37701;SDS011;23548;51.196;6.838;2022-08-21T13:37:45;3.20;;;1.50;;
37701;SDS011;23548;51.196;6.838;2022-08-21T13:40:14;3.83;;;1.23;;
37701;SDS011;23548;51.196;6.838;2022-08-21T13:42:44;3.40;;;1.50;;
37701;SDS011;23548;51.196;6.838;2022-08-21T13:45:24;3.42;;;1.50;;
37701;SDS011;23548;51.196;6.838;2022-08-21T13:47:52;4.43;;;1.25;;
37701;SDS011;23548;51.196;6.838;2022-08-21T13:50:20;4.78;;;1.23;;
37701;SDS011;23548;51.196;6.838;2022-08-21T13:53:35;4.07;;;1.33;;
37701;SDS011;23548;51.196;6.838;2022-08-21T13:55:47;5.05;;;1.40;;
37701;SDS011;23548;51.196;6.838;2022-08-21T13:58:23;3.40;;;1.48;;
37701;SDS011;23548;51.196;6.838;2022-08-21T14:00:50;4.60;;;1.63;;
37701;SDS011;23548;51.196;6.838;2022-08-21T14:03:32;3.08;;;1.50;;
37701;SDS011;23548;51.196;6.838;2022-08-21T14:06:13;2.83;;;1.40;;
37701;SDS011;23548;51.196;6.838;2022-08-21T14:08:46;2.33;;;1.25;;
37701;SDS011;23548;51.196;6.838;2022-08-21T14:11:21;3.15;;;1.17;;
37701;SDS011;23548;51.196;6.838;2022-08-21T14:16:22;3.47;;;1.48;;
37701;SDS011;23548;51.196;6.838;2022-08-21T14:19:07;3.50;;;1.20;;
37701;SDS011;23548;51.196;6.838;2022-08-21T14:21:37;2.88;;;1.30;;
37701;SDS011;23548;51.196;6.838;2022-08-21T14:24:13;4.50;;;1.90;;
37701;SDS011;23548;51.196;6.838;2022-08-21T14:26:57;4.18;;;1.45;;
37701;SDS011;23548;51.196;6.838;2022-08-21T14:29:27;5.35;;;1.70;;
37701;SDS011;23548;51.196;6.838;2022-08-21T14:31:58;3.67;;;1.83;;
37701;SDS011;23548;51.196;6.838;2022-08-21T14:34:25;4.22;;;1.75;;
37701;SDS011;23548;51.196;6.838;2022-08-21T14:36:53;4.07;;;1.25;;
37701;SDS011;23548;51.196;6.838;2022-08-21T14:39:20;3.05;;;1.38;;
37701;SDS011;23548;51.196;6.838;2022-08-21T14:41:47;3.75;;;1.50;;
37701;SDS011;23548;51.196;6.838;2022-08-21T14:44:17;5.50;;;1.27;;
37701;SDS011;23548;51.196;6.838;2022-08-21T14:46:44;3.28;;;1.50;;
37701;SDS011;23548;51.196;6.838;2022-08-21T14:49:10;5.97;;;1.67;;
37701;SDS011;23548;51.196;6.838;2022-08-21T14:51:36;4.38;;;1.55;;
37701;SDS011;23548;51.196;6.838;2022-08-21T14:54:05;2.75;;;1.45;;
37701;SDS011;23548;51.196;6.838;2022-08-21T14:56:32;3.40;;;1.40;;
37701;SDS011;23548;51.196;6.838;2022-08-21T14:58:59;2.83;;;1.30;;
37701;SDS011;23548;51.196;6.838;2022-08-21T15:01:29;6.80;;;1.75;;
37701;SDS011;23548;51.196;6.838;2022-08-21T15:03:58;3.78;;;1.40;;
37701;SDS011;23548;51.196;6.838;2022-08-21T15:06:24;2.63;;;1.30;;
37701;SDS011;23548;51.196;6.838;2022-08-21T15:08:56;3.40;;;1.52;;
37701;SDS011;23548;51.196;6.838;2022-08-21T15:11:22;3.80;;;1.45;;
37701;SDS011;23548;51.196;6.838;2022-08-21T15:13:54;5.13;;;1.45;;
37701;SDS011;23548;51.196;6.838;2022-08-21T15:16:22;4.05;;;1.70;;
37701;SDS011;23548;51.196;6.838;2022-08-21T15:18:49;3.13;;;1.40;;
37701;SDS011;23548;51.196;6.838;2022-08-21T15:21:15;3.25;;;1.50;;
37701;SDS011;23548;51.196;6.838;2022-08-21T15:23:41;5.22;;;1.33;;
37701;SDS011;23548;51.196;6.838;2022-08-21T15:26:06;4.15;;;1.88;;
37701;SDS011;23548;51.196;6.838;2022-08-21T15:28:33;3.75;;;1.77;;
37701;SDS011;23548;51.196;6.838;2022-08-21T15:30:59;6.88;;;1.80;;
37701;SDS011;23548;51.196;6.838;2022-08-21T15:33:26;4.53;;;1.60;;
37701;SDS011;23548;51.196;6.838;2022-08-21T15:35:53;5.93;;;1.45;;
37701;SDS011;23548;51.196;6.838;2022-08-21T15:38:18;4.40;;;1.45;;
37701;SDS011;23548;51.196;6.838;2022-08-21T15:40:44;2.72;;;1.40;;
37701;SDS011;23548;51.196;6.838;2022-08-21T15:43:21;4.25;;;1.98;;
37701;SDS011;23548;51.196;6.838;2022-08-21T15:45:52;5.85;;;1.50;;
37701;SDS011;23548;51.196;6.838;2022-08-21T15:48:19;3.05;;;1.42;;
37701;SDS011;23548;51.196;6.838;2022-08-21T15:50:44;3.25;;;1.20;;
37701;SDS011;23548;51.196;6.838;2022-08-21T15:53:11;6.93;;;1.65;;
37701;SDS011;23548;51.196;6.838;2022-08-21T15:55:37;3.95;;;1.45;;
37701;SDS011;23548;51.196;6.838;2022-08-21T15:58:04;3.50;;;1.35;;
37701;SDS011;23548;51.196;6.838;2022-08-21T16:00:31;4.55;;;1.40;;
37701;SDS011;23548;51.196;6.838;2022-08-21T16:03:00;3.13;;;1.65;;